createdAt,value
2022-08-04T00:00:30.657Z,26.40
2022-08-04T00:03:09.288Z,26.80
2022-08-04T00:05:41.347Z,26.70
2022-08-04T00:08:13.247Z,26.80
2022-08-04T00:10:41.188Z,26.80
2022-08-04T00:13:08.905Z,27.00
2022-08-04T00:15:36.630Z,27.10
2022-08-04T00:18:06.853Z,27.00
2022-08-04T00:20:35.804Z,26.80
2022-08-04T00:23:03.685Z,26.90
2022-08-04T00:25:31.420Z,26.70
2022-08-04T00:28:00.818Z,26.50
2022-08-04T00:30:28.589Z,26.50
2022-08-04T00:32:56.669Z,26.50
2022-08-04T00:35:26.099Z,26.70
2022-08-04T00:37:53.860Z,26.30
2022-08-04T00:40:25.990Z,26.20
2022-08-04T00:43:04.883Z,26.30
2022-08-04T00:46:15.178Z,26.30
2022-08-04T00:48:51.143Z,26.40
2022-08-04T00:51:26.463Z,26.70
2022-08-04T00:53:59.852Z,25.90
2022-08-04T00:56:38.323Z,26.00
2022-08-04T00:59:12.003Z,26.20
2022-08-04T01:01:56.585Z,26.30
2022-08-04T01:04:29.789Z,26.40
2022-08-04T01:07:12.096Z,26.50
2022-08-04T01:09:45.630Z,26.40
2022-08-04T01:12:22.471Z,26.20
2022-08-04T01:14:56.680Z,26.10
2022-08-04T01:17:26.246Z,26.30
2022-08-04T01:20:06.611Z,26.30
2022-08-04T01:23:01.435Z,26.20
2022-08-04T01:26:03.163Z,26.20
2022-08-04T01:29:08.611Z,26.40
2022-08-04T01:31:49.986Z,26.20
2022-08-04T01:34:18.083Z,26.10
2022-08-04T01:36:49.931Z,26.20
2022-08-04T01:39:35.419Z,26.00
2022-08-04T01:42:03.236Z,25.90
2022-08-04T01:44:32.322Z,25.90
2022-08-04T01:47:01.383Z,26.10
2022-08-04T01:49:30.463Z,26.10
2022-08-04T01:52:10.154Z,25.70
2022-08-04T01:54:40.536Z,25.70
2022-08-04T01:57:46.123Z,25.90
2022-08-04T01:59:57.515Z,26.20
2022-08-04T02:02:25.314Z,25.90
2022-08-04T02:04:53.100Z,25.70
2022-08-04T02:07:29.234Z,25.40
2022-08-04T02:10:04.332Z,25.30
2022-08-04T02:12:42.742Z,25.10
2022-08-04T02:15:15.001Z,25.40
2022-08-04T02:17:47.142Z,24.70
2022-08-04T02:20:18.170Z,24.50
2022-08-04T02:22:48.751Z,24.50
2022-08-04T02:25:19.972Z,24.60
2022-08-04T02:28:00.230Z,24.60
2022-08-04T02:30:33.205Z,24.60
2022-08-04T02:33:03.352Z,24.50
2022-08-04T02:35:31.383Z,24.50
2022-08-04T02:38:04.188Z,24.30
2022-08-04T02:40:32.144Z,24.30
2022-08-04T02:43:00.186Z,24.60
2022-08-04T02:45:28.409Z,24.80
2022-08-04T02:48:29.609Z,25.20
2022-08-04T02:50:45.652Z,24.90
2022-08-04T02:53:13.980Z,24.90
2022-08-04T02:55:50.483Z,24.90
2022-08-04T02:58:21.502Z,25.20
2022-08-04T03:00:50.819Z,25.50
2022-08-04T03:03:25.772Z,25.40
2022-08-04T03:06:10.944Z,25.50
2022-08-04T03:08:57.231Z,25.70
2022-08-04T03:12:06.750Z,25.70
2022-08-04T03:14:51.730Z,25.70
2022-08-04T03:17:52.658Z,25.90
2022-08-04T03:20:57.375Z,26.00
2022-08-04T03:23:58.378Z,25.90
2022-08-04T03:26:52.733Z,25.90
2022-08-04T03:29:36.658Z,25.90
2022-08-04T03:32:41.989Z,25.80
2022-08-04T03:35:23.327Z,25.90
2022-08-04T03:38:14.323Z,25.90
2022-08-04T03:41:05.293Z,25.70
2022-08-04T03:44:04.249Z,25.70
2022-08-04T03:46:52.862Z,25.80
2022-08-04T03:49:49.194Z,25.70
2022-08-04T03:52:47.333Z,25.60
2022-08-04T03:55:28.227Z,25.80
2022-08-04T03:58:13.289Z,25.90
2022-08-04T04:00:42.771Z,25.90
2022-08-04T04:03:54.334Z,25.90
2022-08-04T04:06:54.208Z,25.10
2022-08-04T04:09:57.466Z,25.60
2022-08-04T04:12:55.821Z,25.10
2022-08-04T04:15:50.067Z,25.30
2022-08-04T04:18:23.900Z,25.60
2022-08-04T04:20:59.125Z,24.90
2022-08-04T04:23:41.453Z,24.30
2022-08-04T04:26:23.851Z,24.30
2022-08-04T04:29:02.854Z,25.00
2022-08-04T04:31:38.543Z,25.40
2022-08-04T04:34:10.637Z,25.10
2022-08-04T04:36:42.615Z,24.90
2022-08-04T04:39:15.193Z,24.90
2022-08-04T04:42:08.109Z,25.00
2022-08-04T04:45:02.818Z,25.20
2022-08-04T04:47:43.196Z,25.40
2022-08-04T04:50:33.620Z,25.40
2022-08-04T04:53:08.500Z,25.20
2022-08-04T04:55:41.017Z,25.20
2022-08-04T04:58:13.416Z,25.20
2022-08-04T05:01:16.032Z,25.50
2022-08-04T05:03:54.904Z,25.90
2022-08-04T05:06:37.294Z,26.20
2022-08-04T05:09:09.140Z,26.40
2022-08-04T05:11:46.429Z,26.40
2022-08-04T05:14:38.327Z,26.10
2022-08-04T05:17:10.916Z,26.00
2022-08-04T05:19:45.369Z,25.70
2022-08-04T05:22:15.073Z,26.00
2022-08-04T05:24:43.970Z,26.10
2022-08-04T05:27:13.775Z,26.20
2022-08-04T05:29:46.274Z,25.90
2022-08-04T05:32:16.420Z,25.80
2022-08-04T05:34:46.066Z,25.80
2022-08-04T05:37:16.966Z,25.70
2022-08-04T05:39:47.582Z,26.00
2022-08-04T05:42:15.366Z,26.20
2022-08-04T05:44:46.340Z,26.40
2022-08-04T05:47:18.120Z,26.50
2022-08-04T05:49:45.930Z,26.50
2022-08-04T05:52:29.531Z,26.50
2022-08-04T05:54:57.237Z,26.60
2022-08-04T05:57:25.188Z,26.60
2022-08-04T05:59:53.613Z,26.80
2022-08-04T06:02:22.966Z,27.10
2022-08-04T06:04:51.891Z,27.40
2022-08-04T06:07:19.988Z,27.50
2022-08-04T06:09:48.119Z,27.60
2022-08-04T06:12:18.295Z,27.70
2022-08-04T06:14:47.231Z,27.80
2022-08-04T06:18:33.490Z,27.90
2022-08-04T06:20:18.885Z,28.00
2022-08-04T06:22:53.471Z,28.10
2022-08-04T06:25:22.762Z,28.20
2022-08-04T06:27:51.128Z,28.20
2022-08-04T06:30:19.866Z,28.30
2022-08-04T06:33:03.472Z,28.40
2022-08-04T06:35:34.692Z,28.40
2022-08-04T06:38:03.107Z,28.50
2022-08-04T06:40:33.759Z,28.60
2022-08-04T06:43:03.174Z,28.60
2022-08-04T06:45:31.079Z,28.70
2022-08-04T06:47:59.065Z,28.80
2022-08-04T06:51:27.259Z,28.80
2022-08-04T06:53:17.722Z,28.90
2022-08-04T06:55:47.236Z,28.90
2022-08-04T06:58:15.140Z,29.00
2022-08-04T07:00:43.244Z,29.00
2022-08-04T07:03:11.110Z,29.10
2022-08-04T07:05:38.843Z,29.10
2022-08-04T07:08:06.635Z,29.20
2022-08-04T07:10:35.838Z,29.20
2022-08-04T07:13:03.639Z,29.30
2022-08-04T07:15:31.409Z,29.30
2022-08-04T07:18:01.239Z,29.40
2022-08-04T07:20:34.633Z,29.50
2022-08-04T07:23:04.605Z,29.50
2022-08-04T07:25:59.422Z,29.60
2022-08-04T07:28:22.274Z,29.60
2022-08-04T07:30:50.482Z,29.70
2022-08-04T07:33:18.496Z,29.70
2022-08-04T07:36:05.603Z,29.80
2022-08-04T07:38:34.006Z,29.80
2022-08-04T07:41:35.264Z,29.90
2022-08-04T07:43:55.934Z,30.00
2022-08-04T07:46:23.801Z,30.10
2022-08-04T07:48:51.740Z,30.20
2022-08-04T07:51:19.706Z,30.30
2022-08-04T07:53:52.881Z,30.40
2022-08-04T07:56:23.678Z,30.40
2022-08-04T07:58:51.589Z,30.50
2022-08-04T08:01:22.324Z,30.60
2022-08-04T08:03:50.372Z,30.70
2022-08-04T08:06:32.331Z,30.70
2022-08-04T08:09:12.541Z,30.80
2022-08-04T08:12:38.169Z,30.80
2022-08-04T08:14:30.698Z,31.00
2022-08-04T08:17:02.532Z,31.00
2022-08-04T08:19:31.046Z,31.10
2022-08-04T08:22:00.922Z,31.10
2022-08-04T08:24:29.801Z,31.20
2022-08-04T08:26:58.076Z,31.30
2022-08-04T08:29:26.960Z,31.40
2022-08-04T08:31:58.246Z,31.50
2022-08-04T08:34:29.101Z,31.50
2022-08-04T08:37:00.632Z,31.60
2022-08-04T08:39:31.311Z,31.60
2022-08-04T08:42:22.909Z,31.70
2022-08-04T08:45:18.796Z,31.90
2022-08-04T08:48:20.982Z,32.10
2022-08-04T08:51:02.281Z,32.20
2022-08-04T08:53:44.468Z,32.30
2022-08-04T08:56:15.079Z,32.40
2022-08-04T08:58:52.304Z,32.60
2022-08-04T09:01:30.337Z,32.70
2022-08-04T09:04:37.031Z,32.70
2022-08-04T09:07:15.080Z,32.80
2022-08-04T09:09:59.393Z,32.90
2022-08-04T09:12:31.066Z,33.00
2022-08-04T09:15:04.616Z,33.00
2022-08-04T09:17:36.660Z,33.10
2022-08-04T09:20:06.995Z,33.10
2022-08-04T09:22:39.841Z,33.20
2022-08-04T09:25:10.077Z,33.30
2022-08-04T09:27:45.239Z,33.40
2022-08-04T09:30:14.161Z,33.50
2022-08-04T09:32:45.327Z,33.60
2022-08-04T09:35:19.106Z,33.70
2022-08-04T09:37:54.464Z,33.70
2022-08-04T09:40:31.071Z,33.70
2022-08-04T09:43:06.762Z,33.90
2022-08-04T09:45:43.160Z,33.90
2022-08-04T09:48:15.251Z,34.00
2022-08-04T09:50:49.972Z,34.10
2022-08-04T09:53:28.791Z,34.20
2022-08-04T09:56:03.008Z,34.30
2022-08-04T09:58:54.275Z,34.50
2022-08-04T10:01:24.155Z,34.60
2022-08-04T10:03:53.539Z,34.70
2022-08-04T10:06:43.867Z,34.80
2022-08-04T10:09:22.217Z,34.90
2022-08-04T10:12:09.310Z,35.00
2022-08-04T10:14:42.111Z,35.20
2022-08-04T10:17:21.682Z,35.30
2022-08-04T10:19:54.709Z,35.50
2022-08-04T10:22:28.354Z,35.60
2022-08-04T10:25:04.846Z,35.70
2022-08-04T10:27:53.305Z,35.70
2022-08-04T10:30:21.020Z,35.80
2022-08-04T10:32:52.171Z,36.00
2022-08-04T10:35:21.196Z,36.10
2022-08-04T10:37:59.241Z,36.20
2022-08-04T10:40:45.140Z,36.30
2022-08-04T10:43:23.531Z,36.40
2022-08-04T10:45:58.089Z,36.50
2022-08-04T10:48:34.867Z,36.60
2022-08-04T10:51:05.852Z,36.70
2022-08-04T10:53:33.708Z,36.80
2022-08-04T10:56:08.928Z,36.90
2022-08-04T10:58:47.306Z,37.00
2022-08-04T11:01:50.772Z,37.10
2022-08-04T11:04:11.604Z,37.20
2022-08-04T11:06:39.621Z,37.30
2022-08-04T11:09:14.859Z,37.40
2022-08-04T11:12:00.208Z,37.40
2022-08-04T11:14:32.755Z,37.50
2022-08-04T11:17:02.877Z,37.70
2022-08-04T11:19:43.062Z,37.80
2022-08-04T11:22:16.397Z,37.90
2022-08-04T11:24:46.495Z,38.00
2022-08-04T11:27:17.420Z,38.20
2022-08-04T11:29:50.886Z,38.30
2022-08-04T11:32:19.687Z,38.40
2022-08-04T11:34:52.767Z,38.50
2022-08-04T11:37:24.271Z,38.60
2022-08-04T11:39:54.117Z,38.80
2022-08-04T11:42:24.575Z,38.80
2022-08-04T11:44:53.519Z,38.90
2022-08-04T11:47:26.661Z,38.80
2022-08-04T11:49:58.161Z,39.00
2022-08-04T11:52:27.046Z,39.10
2022-08-04T11:54:55.006Z,39.10
2022-08-04T11:57:35.167Z,39.20
2022-08-04T12:00:07.206Z,39.30
2022-08-04T12:03:01.281Z,39.30
2022-08-04T12:05:37.239Z,39.30
2022-08-04T12:08:17.640Z,39.40
2022-08-04T12:10:48.672Z,39.50
2022-08-04T12:13:23.408Z,39.60
2022-08-04T12:15:57.434Z,39.80
2022-08-04T12:18:28.596Z,39.90
2022-08-04T12:20:58.474Z,39.90
2022-08-04T12:23:31.507Z,40.00
2022-08-04T12:26:01.951Z,40.10
2022-08-04T12:29:06.873Z,40.20
2022-08-04T12:31:30.052Z,40.20
2022-08-04T12:34:05.289Z,40.30
2022-08-04T12:36:36.948Z,40.40
2022-08-04T12:39:10.410Z,40.40
2022-08-04T12:41:41.667Z,40.50
2022-08-04T12:44:36.565Z,40.60
2022-08-04T12:47:26.286Z,40.60
2022-08-04T12:50:00.283Z,40.70
2022-08-04T12:52:51.835Z,40.70
2022-08-04T12:55:16.946Z,40.80
2022-08-04T12:57:44.656Z,40.80
2022-08-04T13:00:15.851Z,40.80
2022-08-04T13:02:44.364Z,40.80
2022-08-04T13:05:16.890Z,40.70
2022-08-04T13:07:50.691Z,40.60
2022-08-04T13:10:20.421Z,40.50
2022-08-04T13:12:58.879Z,40.50
2022-08-04T13:15:29.154Z,40.40
2022-08-04T13:17:59.760Z,40.40
2022-08-04T13:20:29.354Z,40.40
2022-08-04T13:23:08.981Z,40.40
2022-08-04T13:26:43.531Z,40.40
2022-08-04T13:28:28.638Z,40.30
2022-08-04T13:31:00.336Z,40.10
2022-08-04T13:33:30.343Z,40.10
2022-08-04T13:35:58.270Z,39.90
2022-08-04T13:38:26.109Z,39.80
2022-08-04T13:40:53.932Z,39.70
2022-08-04T13:43:51.595Z,39.60
2022-08-04T13:46:28.136Z,39.50
2022-08-04T13:49:23.617Z,39.30
2022-08-04T13:51:57.378Z,39.20
2022-08-04T13:54:26.990Z,39.10
2022-08-04T13:57:00.494Z,39.00
2022-08-04T13:59:29.311Z,38.90
2022-08-04T14:02:04.141Z,38.80
2022-08-04T14:04:33.155Z,38.70
2022-08-04T14:07:04.421Z,38.70
2022-08-04T14:09:34.808Z,38.60
2022-08-04T14:12:38.441Z,38.50
2022-08-04T14:14:56.489Z,38.40
2022-08-04T14:17:30.596Z,38.30
2022-08-04T14:19:59.214Z,38.30
2022-08-04T14:22:35.189Z,38.20
2022-08-04T14:25:09.227Z,38.10
2022-08-04T14:27:45.276Z,38.10
2022-08-04T14:30:24.103Z,38.00
2022-08-04T14:34:00.664Z,37.90
2022-08-04T14:35:57.618Z,37.80
2022-08-04T14:38:25.361Z,37.70
2022-08-04T14:40:53.164Z,37.60
2022-08-04T14:43:21.115Z,37.60
2022-08-04T14:45:54.739Z,37.50
2022-08-04T14:48:25.410Z,37.40
2022-08-04T14:50:53.264Z,37.30
2022-08-04T14:53:21.884Z,37.30
2022-08-04T14:55:50.823Z,37.20
2022-08-04T14:58:34.040Z,37.10
2022-08-04T15:01:10.805Z,37.10
2022-08-04T15:03:49.854Z,37.00
2022-08-04T15:06:22.318Z,37.00
2022-08-04T15:08:51.110Z,36.90
2022-08-04T15:11:22.759Z,36.80
2022-08-04T15:13:51.602Z,36.80
2022-08-04T15:16:19.304Z,36.70
2022-08-04T15:18:49.652Z,36.70
2022-08-04T15:21:17.737Z,36.80
2022-08-04T15:23:45.480Z,36.70
2022-08-04T15:26:20.572Z,36.70
2022-08-04T15:28:49.938Z,36.70
2022-08-04T15:32:04.237Z,36.60
2022-08-04T15:34:08.321Z,36.60
2022-08-04T15:36:39.820Z,36.50
2022-08-04T15:39:18.515Z,36.50
2022-08-04T15:41:55.539Z,36.50
2022-08-04T15:44:50.375Z,36.50
2022-08-04T15:47:18.144Z,36.50
2022-08-04T15:49:47.687Z,36.40
2022-08-04T15:52:18.287Z,36.40
2022-08-04T15:54:52.340Z,34.20
2022-08-04T15:57:54.112Z,32.40
2022-08-04T16:00:21.819Z,32.00
2022-08-04T16:02:49.636Z,31.30
2022-08-04T16:05:40.323Z,31.00
2022-08-04T16:08:17.508Z,30.30
2022-08-04T16:10:47.624Z,30.30
2022-08-04T16:13:16.782Z,30.00
2022-08-04T16:15:46.572Z,29.80
2022-08-04T16:18:26.159Z,29.50
2022-08-04T16:20:57.689Z,30.00
2022-08-04T16:23:55.094Z,29.90
2022-08-04T16:26:56.020Z,30.10
2022-08-04T16:29:38.846Z,30.30
2022-08-04T16:32:14.677Z,29.90
2022-08-04T16:34:49.833Z,30.00
2022-08-04T16:37:25.029Z,30.10
2022-08-04T16:39:53.178Z,30.10
2022-08-04T16:42:32.022Z,30.10
2022-08-04T16:45:00.451Z,30.30
2022-08-04T16:48:01.763Z,30.30
2022-08-04T16:50:29.860Z,30.50
2022-08-04T16:52:59.186Z,30.40
2022-08-04T16:55:28.790Z,30.40
2022-08-04T16:57:57.675Z,30.40
2022-08-04T17:00:33.029Z,30.60
2022-08-04T17:03:03.434Z,30.30
2022-08-04T17:05:38.889Z,30.30
2022-08-04T17:10:58.167Z,30.30
2022-08-04T17:14:04.505Z,30.10
2022-08-04T17:16:17.852Z,30.20
2022-08-04T17:18:47.080Z,30.40
2022-08-04T17:21:16.467Z,30.20
2022-08-04T17:24:14.917Z,30.30
2022-08-04T17:26:40.188Z,30.20
2022-08-04T17:29:09.288Z,30.20
2022-08-04T17:31:37.818Z,29.90
2022-08-04T17:34:15.714Z,29.80
2022-08-04T17:36:44.347Z,30.00
2022-08-04T17:39:17.265Z,29.80
2022-08-04T17:41:49.219Z,29.80
2022-08-04T17:44:17.965Z,29.80
2022-08-04T17:46:48.205Z,29.50
2022-08-04T17:49:21.540Z,29.40
2022-08-04T17:52:02.533Z,29.10
2022-08-04T17:54:38.998Z,29.10
2022-08-04T17:57:15.200Z,28.80
2022-08-04T17:59:52.794Z,28.90
2022-08-04T18:02:33.540Z,29.40
2022-08-04T18:05:06.104Z,29.60
2022-08-04T18:08:40.814Z,29.20
2022-08-04T18:10:52.328Z,29.10
2022-08-04T18:13:24.575Z,29.00
2022-08-04T18:16:02.384Z,29.10
2022-08-04T18:18:30.706Z,28.80
2022-08-04T18:21:03.012Z,28.70
2022-08-04T18:23:33.123Z,28.80
2022-08-04T18:26:03.810Z,28.60
2022-08-04T18:31:19.501Z,28.40
2022-08-04T18:33:57.096Z,27.90
2022-08-04T18:36:34.099Z,27.80
2022-08-04T18:39:12.088Z,27.90
2022-08-04T18:42:00.994Z,27.90
2022-08-04T18:44:30.979Z,27.80
2022-08-04T18:47:22.339Z,27.90
2022-08-04T18:50:58.801Z,28.20
2022-08-04T18:52:34.640Z,28.30
2022-08-04T18:55:02.456Z,28.10
2022-08-04T18:58:00.905Z,27.90
2022-08-04T19:00:20.165Z,28.00
2022-08-04T19:02:48.062Z,27.90
2022-08-04T19:05:17.492Z,27.70
2022-08-04T19:10:33.246Z,27.30
2022-08-04T19:13:03.840Z,27.40
2022-08-04T19:15:51.546Z,27.10
2022-08-04T19:18:19.255Z,27.20
2022-08-04T19:20:49.037Z,27.50
2022-08-04T19:24:10.772Z,27.60
2022-08-04T19:26:11.301Z,27.50
2022-08-04T19:28:51.072Z,27.00
2022-08-04T19:31:19.289Z,26.60
2022-08-04T19:34:04.637Z,26.40
2022-08-04T19:36:33.245Z,26.50
2022-08-04T19:39:02.838Z,26.70
2022-08-04T19:41:31.981Z,26.50
2022-08-04T19:44:01.038Z,26.40
2022-08-04T19:46:29.121Z,26.30
2022-08-04T19:48:59.636Z,26.20
2022-08-04T19:51:29.061Z,26.20
2022-08-04T19:54:02.794Z,25.80
2022-08-04T19:56:39.957Z,25.90
2022-08-04T19:59:10.398Z,25.90
2022-08-04T20:01:44.556Z,25.60
2022-08-04T20:04:13.477Z,25.70
2022-08-04T20:06:41.466Z,26.00
2022-08-04T20:09:24.921Z,25.90
2022-08-04T20:11:54.208Z,25.70
2022-08-04T20:14:31.476Z,25.70
2022-08-04T20:17:01.899Z,25.50
2022-08-04T20:19:30.329Z,25.60
2022-08-04T20:21:58.733Z,25.50
2022-08-04T20:24:38.203Z,25.40
2022-08-04T20:27:14.661Z,25.60
2022-08-04T20:29:48.555Z,25.60
2022-08-04T20:32:19.680Z,25.20
2022-08-04T20:34:48.121Z,25.20
2022-08-04T20:37:16.017Z,24.90
2022-08-04T20:39:43.932Z,25.20
2022-08-04T20:42:12.461Z,24.90
2022-08-04T20:44:42.093Z,24.50
2022-08-04T20:47:15.372Z,24.60
2022-08-04T20:49:43.175Z,25.00
2022-08-04T20:52:16.329Z,25.30
2022-08-04T20:54:48.425Z,25.20
2022-08-04T20:57:17.142Z,25.30
2022-08-04T20:59:59.885Z,25.50
2022-08-04T21:02:29.578Z,25.50
2022-08-04T21:04:57.298Z,25.40
2022-08-04T21:07:25.421Z,25.60
2022-08-04T21:09:53.533Z,25.50
2022-08-04T21:12:28.298Z,25.60
2022-08-04T21:14:58.182Z,25.60
2022-08-04T21:17:58.206Z,25.20
2022-08-04T21:20:27.368Z,25.70
2022-08-04T21:22:59.719Z,25.50
2022-08-04T21:25:30.537Z,24.90
2022-08-04T21:28:04.018Z,24.90
2022-08-04T21:30:54.708Z,25.00
2022-08-04T21:33:20.944Z,25.30
2022-08-04T21:35:54.116Z,25.20
2022-08-04T21:38:28.007Z,25.00
2022-08-04T21:40:56.770Z,25.20
2022-08-04T21:43:27.247Z,25.60
2022-08-04T21:45:56.384Z,25.10
2022-08-04T21:48:27.457Z,25.40
2022-08-04T21:50:57.257Z,25.50
2022-08-04T21:53:27.738Z,25.80
2022-08-04T21:56:05.613Z,25.70
2022-08-04T21:58:35.070Z,26.00
2022-08-04T22:03:57.011Z,26.20
2022-08-04T22:06:28.211Z,25.90
2022-08-04T22:08:57.207Z,26.10
2022-08-04T22:11:26.706Z,26.00
2022-08-04T22:14:12.737Z,25.80
2022-08-04T22:16:41.759Z,26.00
2022-08-04T22:19:10.833Z,26.10
2022-08-04T22:21:45.258Z,26.20
2022-08-04T22:24:14.718Z,26.10
2022-08-04T22:26:42.702Z,26.00
2022-08-04T22:29:14.627Z,26.20
2022-08-04T22:31:56.174Z,26.40
2022-08-04T22:34:25.621Z,26.50
2022-08-04T22:36:54.713Z,26.10
2022-08-04T22:39:23.350Z,26.10
2022-08-04T22:42:03.632Z,26.00
2022-08-04T22:44:33.009Z,26.10
2022-08-04T22:47:01.775Z,26.40
2022-08-04T22:49:31.899Z,26.40
2022-08-04T22:52:02.936Z,26.40
2022-08-04T22:54:38.775Z,26.00
2022-08-04T22:57:08.454Z,26.20
2022-08-04T22:59:42.894Z,26.20
2022-08-04T23:02:14.717Z,26.40
2022-08-04T23:04:42.770Z,26.20
2022-08-04T23:07:13.803Z,26.20
2022-08-04T23:09:49.502Z,26.30
2022-08-04T23:12:27.179Z,26.50
2022-08-04T23:14:56.378Z,26.40
2022-08-04T23:17:25.330Z,26.20
2022-08-04T23:19:58.624Z,26.10
2022-08-04T23:22:41.482Z,26.00
2022-08-04T23:25:15.922Z,26.20
2022-08-04T23:27:48.240Z,26.20
2022-08-04T23:30:21.683Z,26.20
2022-08-04T23:32:52.508Z,26.20
2022-08-04T23:35:22.000Z,26.20
2022-08-04T23:37:56.858Z,26.20
2022-08-04T23:40:32.468Z,26.20
2022-08-04T23:43:17.399Z,25.80
2022-08-04T23:46:06.582Z,26.00
2022-08-04T23:48:34.680Z,26.20
2022-08-04T23:51:14.215Z,25.80
2022-08-04T23:54:02.447Z,25.00
2022-08-04T23:56:32.302Z,25.30
2022-08-04T23:59:04.132Z,24.60
